Oshawa, Canada
Current Conditions -  °F | °C
As of 7:28 AM on Monday 20 Oct 2014 (Local Time) from CYOO Reporting Station
Light Rain Light Rain  
Wind Chill: 41°   Ceiling: 4800
Heat Index: 41°   Visibility: 9mi
Dew Point: 37°   Wind: 2mph
Humidity: 87%   Direction: NA
Pressure: 29.91"   Gusts: NA
Location:  43.89°N, 78.86°W
Report Text: CYOO 201128Z AUTO VRB02KT 9SM -RA BKN048 OVC075 05/03 A2991 RMK SLP131
Loading
Personal Weather Stations






























Interactive Weather Map
Tropical Storm Tracking
New forecast layout! Learn more

10-Day Weather Forecast

Advertisements
Track Severe Weather on mobile